createdAt,value
2023-02-11T00:01:52.820Z,100660.38
2023-02-11T00:04:19.666Z,100658.66
2023-02-11T00:06:46.456Z,100653.56
2023-02-11T00:09:13.290Z,100659.59
2023-02-11T00:11:40.164Z,100660.47
2023-02-11T00:14:08.426Z,100644.16
2023-02-11T00:16:35.390Z,100642.47
2023-02-11T00:19:03.906Z,100642.38
2023-02-11T00:21:30.712Z,100617.50
2023-02-11T00:23:59.766Z,100611.59
2023-02-11T00:26:32.196Z,100590.94
2023-02-11T00:28:59.613Z,100569.50
2023-02-11T00:31:27.309Z,100580.69
2023-02-11T00:33:54.565Z,100578.97
2023-02-11T00:36:24.539Z,100555.78
2023-02-11T00:38:52.602Z,100543.75
2023-02-11T00:41:20.513Z,100543.78
2023-02-11T00:43:47.869Z,100532.66
2023-02-11T00:46:15.486Z,100522.34
2023-02-11T00:48:42.628Z,100510.31
2023-02-11T00:51:09.731Z,100490.53
2023-02-11T00:53:36.845Z,100484.56
2023-02-11T00:56:04.143Z,100485.44
2023-02-11T00:58:31.334Z,100476.78
2023-02-11T01:00:58.249Z,100480.28
2023-02-11T01:03:25.466Z,100452.81
2023-02-11T01:05:52.637Z,100450.22
2023-02-11T01:08:20.178Z,100429.66
2023-02-11T01:10:54.989Z,100446.06
2023-02-11T01:13:22.441Z,100442.66
2023-02-11T01:15:49.873Z,100445.31
2023-02-11T01:18:18.047Z,100429.03
2023-02-11T01:20:45.025Z,100434.22
2023-02-11T01:23:11.974Z,100444.50
2023-02-11T01:25:38.880Z,100425.56
2023-02-11T01:28:05.898Z,100442.75
2023-02-11T01:30:32.925Z,100449.66
2023-02-11T01:32:59.768Z,100452.22
2023-02-11T01:35:26.676Z,100444.47
2023-02-11T01:37:53.544Z,100441.81
2023-02-11T01:40:20.515Z,100447.06
2023-02-11T01:42:49.427Z,100432.47
2023-02-11T01:45:57.638Z,100428.06
2023-02-11T01:48:36.979Z,100408.28
2023-02-11T01:51:09.775Z,100399.69
2023-02-11T01:53:57.138Z,100390.16
2023-02-11T01:56:45.453Z,100382.31
2023-02-11T01:59:17.830Z,100372.00
2023-02-11T02:01:49.413Z,100365.88
2023-02-11T02:04:18.124Z,100361.63
2023-02-11T02:06:56.526Z,100342.69
2023-02-11T02:09:27.240Z,100347.84
2023-02-11T02:11:54.363Z,100355.66
2023-02-11T02:14:21.540Z,100346.97
2023-02-11T02:16:48.455Z,100341.81
2023-02-11T02:19:49.028Z,100330.63
2023-02-11T02:22:38.422Z,100328.94
2023-02-11T02:25:28.818Z,100331.53
2023-02-11T02:28:09.832Z,100316.97
2023-02-11T02:30:52.395Z,100298.94
2023-02-11T02:33:59.163Z,100320.38
2023-02-11T02:36:38.883Z,100310.09
2023-02-11T02:39:26.500Z,100298.09
2023-02-11T02:41:53.700Z,100303.13
2023-02-11T02:44:20.890Z,100281.72
2023-02-11T02:46:47.794Z,100273.94
2023-02-11T02:49:16.496Z,100275.72
2023-02-11T02:52:04.502Z,100276.59
2023-02-11T02:55:00.605Z,100271.41
2023-02-11T02:58:05.177Z,100270.59
2023-02-11T03:01:05.000Z,100272.31
2023-02-11T03:03:59.446Z,100264.59
2023-02-11T03:06:32.305Z,100246.56
2023-02-11T03:09:04.741Z,100233.69
2023-02-11T03:11:31.652Z,100231.16
2023-02-11T03:14:01.364Z,100227.69
2023-02-11T03:16:28.692Z,100242.31
2023-02-11T03:19:21.858Z,100231.09
2023-02-11T03:21:50.206Z,100229.44
2023-02-11T03:24:22.098Z,100226.88
2023-02-11T03:26:54.393Z,100234.66
2023-02-11T03:29:35.929Z,100214.00
2023-02-11T03:32:28.055Z,100222.66
2023-02-11T03:35:00.592Z,100216.75
2023-02-11T03:37:51.812Z,100220.09
2023-02-11T03:40:25.428Z,100201.09
2023-02-11T03:42:59.271Z,100207.88
2023-02-11T03:45:27.626Z,100196.72
2023-02-11T03:48:00.794Z,100196.66
2023-02-11T03:50:30.647Z,100182.94
2023-02-11T03:52:59.365Z,100184.66
2023-02-11T03:55:26.564Z,100181.22
2023-02-11T03:57:53.467Z,100190.66
2023-02-11T04:00:20.418Z,100195.00
2023-02-11T04:02:47.539Z,100178.69
2023-02-11T04:05:16.246Z,100182.09
2023-02-11T04:07:43.069Z,100160.63
2023-02-11T04:10:11.831Z,100167.44
2023-02-11T04:12:38.625Z,100166.66
2023-02-11T04:15:06.403Z,100155.50
2023-02-11T04:17:33.186Z,100158.06
2023-02-11T04:20:00.044Z,100152.13
2023-02-11T04:22:26.884Z,100138.38
2023-02-11T04:24:53.804Z,100140.06
2023-02-11T04:27:20.702Z,100133.19
2023-02-11T04:29:47.626Z,100119.50
2023-02-11T04:32:14.544Z,100120.34
2023-02-11T04:34:41.434Z,100128.16
2023-02-11T04:37:08.521Z,100134.19
2023-02-11T04:39:35.637Z,100132.44
2023-02-11T04:42:02.492Z,100125.59
2023-02-11T04:44:29.337Z,100109.25
2023-02-11T04:46:56.232Z,100102.44
2023-02-11T04:49:23.417Z,100105.88
2023-02-11T04:51:50.405Z,100087.00
2023-02-11T04:54:17.577Z,100099.06
2023-02-11T04:56:44.783Z,100071.59
2023-02-11T04:59:13.390Z,100064.75
2023-02-11T05:01:40.611Z,100055.31
2023-02-11T05:04:07.514Z,100055.31
2023-02-11T05:06:34.449Z,100063.91
2023-02-11T05:09:01.241Z,100047.69
2023-02-11T05:11:28.049Z,100045.91
2023-02-11T05:13:54.995Z,100043.31
2023-02-11T05:16:22.022Z,100033.94
2023-02-11T05:18:52.420Z,100021.94
2023-02-11T05:21:19.907Z,100014.16
2023-02-11T05:23:46.714Z,100033.97
2023-02-11T05:26:14.086Z,100026.25
2023-02-11T05:28:41.556Z,100023.66
2023-02-11T05:31:09.254Z,100029.69
2023-02-11T05:33:36.209Z,100010.88
2023-02-11T05:36:06.132Z,100004.78
2023-02-11T05:38:33.648Z,100005.69
2023-02-11T05:41:00.946Z,100010.91
2023-02-11T05:43:27.956Z,99998.97
2023-02-11T05:45:55.022Z,99975.88
2023-02-11T05:48:22.011Z,99981.06
2023-02-11T05:50:49.279Z,99977.63
2023-02-11T05:53:16.062Z,99965.59
2023-02-11T05:55:43.118Z,99957.94
2023-02-11T05:58:09.949Z,99965.63
2023-02-11T06:00:36.871Z,99967.34
2023-02-11T06:03:04.638Z,99969.06
2023-02-11T06:05:32.285Z,99952.78
2023-02-11T06:07:59.343Z,99942.59
2023-02-11T06:10:26.794Z,99939.16
2023-02-11T06:12:53.832Z,99936.63
2023-02-11T06:15:20.794Z,99925.53
2023-02-11T06:17:47.736Z,99939.28
2023-02-11T06:20:14.563Z,99930.78
2023-02-11T06:22:41.904Z,99940.22
2023-02-11T06:25:09.047Z,99929.97
2023-02-11T06:27:36.034Z,99943.72
2023-02-11T06:30:03.826Z,99925.78
2023-02-11T06:32:46.562Z,99934.41
2023-02-11T06:35:14.825Z,99928.38
2023-02-11T06:37:42.330Z,99928.44
2023-02-11T06:40:10.203Z,99943.06
2023-02-11T06:42:39.331Z,99938.78
2023-02-11T06:45:09.492Z,99925.88
2023-02-11T06:47:37.264Z,99948.28
2023-02-11T06:50:04.516Z,99941.47
2023-02-11T06:52:31.320Z,99956.16
2023-02-11T06:54:58.196Z,99960.50
2023-02-11T06:57:25.028Z,99977.66
2023-02-11T06:59:52.160Z,99975.13
2023-02-11T07:02:20.906Z,99968.31
2023-02-11T07:04:47.975Z,99984.72
2023-02-11T07:07:14.795Z,99972.75
2023-02-11T07:09:41.840Z,99977.91
2023-02-11T07:12:10.388Z,99987.47
2023-02-11T07:14:37.352Z,99990.97
2023-02-11T07:17:04.901Z,99974.72
2023-02-11T07:19:31.948Z,99992.75
2023-02-11T07:21:58.741Z,99969.56
2023-02-11T07:24:25.756Z,99954.22
2023-02-11T07:26:53.633Z,99954.28
2023-02-11T07:29:20.499Z,99955.19
2023-02-11T07:31:47.419Z,99961.19
2023-02-11T07:34:14.319Z,99949.25
2023-02-11T07:36:43.690Z,99959.59
2023-02-11T07:39:10.898Z,99942.41
2023-02-11T07:41:38.396Z,99930.47
2023-02-11T07:44:05.834Z,99937.44
2023-02-11T07:46:32.996Z,99928.88
2023-02-11T07:48:59.856Z,99918.63
2023-02-11T07:51:28.899Z,99900.63
2023-02-11T07:53:57.496Z,99937.69
2023-02-11T07:56:24.602Z,99931.75
2023-02-11T07:58:51.625Z,99912.78
2023-02-11T08:01:22.898Z,99933.44
2023-02-11T08:03:49.860Z,99898.16
2023-02-11T08:06:18.665Z,99918.88
2023-02-11T08:08:45.506Z,99924.03
2023-02-11T08:11:14.913Z,99910.28
2023-02-11T08:13:42.510Z,99917.16
2023-02-11T08:16:09.896Z,99908.63
2023-02-11T08:18:36.966Z,99925.91
2023-02-11T08:21:08.758Z,99913.91
2023-02-11T08:23:39.914Z,99938.00
2023-02-11T08:26:09.269Z,99905.34
2023-02-11T08:28:37.453Z,99905.38
2023-02-11T08:31:08.845Z,99870.97
2023-02-11T08:33:36.091Z,99875.28
2023-02-11T08:36:09.391Z,99884.81
2023-02-11T08:38:36.406Z,99861.56
2023-02-11T08:41:03.761Z,99864.13
2023-02-11T08:43:30.842Z,99855.53
2023-02-11T08:45:59.513Z,99858.16
2023-02-11T08:48:28.793Z,99846.09
2023-02-11T08:50:56.342Z,99858.16
2023-02-11T08:53:23.631Z,99840.09
2023-02-11T08:55:51.955Z,99852.19
2023-02-11T08:58:19.381Z,99851.34
2023-02-11T09:00:46.638Z,99860.81
2023-02-11T09:03:14.139Z,99882.38
2023-02-11T09:05:45.845Z,99883.25
2023-02-11T09:08:13.362Z,99891.84
2023-02-11T09:10:40.517Z,99884.16
2023-02-11T09:13:07.943Z,99877.28
2023-02-11T09:15:35.521Z,99864.34
2023-02-11T09:18:02.634Z,99887.63
2023-02-11T09:20:29.495Z,99873.03
2023-02-11T09:22:58.127Z,99881.63
2023-02-11T09:25:25.547Z,99873.94
2023-02-11T09:27:53.864Z,99864.50
2023-02-11T09:30:21.024Z,99872.34
2023-02-11T09:32:48.080Z,99898.25
2023-02-11T09:35:14.934Z,99893.09
2023-02-11T09:37:41.774Z,99916.38
2023-02-11T09:40:09.331Z,99894.81
2023-02-11T09:43:04.541Z,99923.25
2023-02-11T09:45:31.597Z,99904.19
2023-02-11T09:48:04.376Z,99923.13
2023-02-11T09:50:39.815Z,99936.09
2023-02-11T09:53:12.517Z,99933.50
2023-02-11T09:55:42.816Z,99940.41
2023-02-11T09:58:33.934Z,99941.28
2023-02-11T10:01:40.680Z,99944.78
2023-02-11T10:04:38.680Z,99918.94
2023-02-11T10:07:22.382Z,99939.63
2023-02-11T10:10:02.356Z,99931.03
2023-02-11T10:13:08.959Z,99937.09
2023-02-11T10:15:46.848Z,99937.09
2023-02-11T10:18:38.209Z,99954.34
2023-02-11T10:21:32.760Z,99945.75
2023-02-11T10:24:02.875Z,99947.44
2023-02-11T10:26:31.203Z,99962.97
2023-02-11T10:29:02.488Z,99970.72
2023-02-11T10:31:38.526Z,99981.09
2023-02-11T10:34:12.893Z,99981.06
2023-02-11T10:36:42.352Z,99986.28
2023-02-11T10:39:16.740Z,100003.53
2023-02-11T10:41:51.551Z,99986.25
2023-02-11T10:44:27.529Z,100006.03
2023-02-11T10:46:54.769Z,100013.78
2023-02-11T10:49:42.547Z,100012.00
2023-02-11T10:52:26.823Z,100029.22
2023-02-11T10:55:16.548Z,100022.34
2023-02-11T10:57:51.519Z,100039.63
2023-02-11T11:00:34.117Z,100036.19
2023-02-11T11:03:01.753Z,100045.69
2023-02-11T11:05:32.306Z,100039.69
2023-02-11T11:08:01.115Z,100050.06
2023-02-11T11:10:37.484Z,100056.09
2023-02-11T11:13:04.402Z,100061.28
2023-02-11T11:15:32.233Z,100067.34
2023-02-11T11:18:22.531Z,100057.88
2023-02-11T11:20:58.954Z,100073.44
2023-02-11T11:23:26.228Z,100074.25
2023-02-11T11:26:06.449Z,100094.97
2023-02-11T11:28:39.036Z,100084.56
2023-02-11T11:31:14.022Z,100102.69
2023-02-11T11:33:44.077Z,100091.47
2023-02-11T11:36:15.835Z,100088.91
2023-02-11T11:38:57.414Z,100101.00
2023-02-11T11:41:27.670Z,100101.84
2023-02-11T11:44:01.107Z,100105.41
2023-02-11T11:46:31.017Z,100107.16
2023-02-11T11:49:04.264Z,100108.88
2023-02-11T11:51:32.281Z,100102.03
2023-02-11T11:54:11.663Z,100111.53
2023-02-11T11:56:48.108Z,100103.81
2023-02-11T11:59:16.780Z,100095.22
2023-02-11T12:02:11.182Z,100104.72
2023-02-11T12:04:47.916Z,100113.38
2023-02-11T12:07:33.110Z,100116.84
2023-02-11T12:10:32.363Z,100132.41
2023-02-11T12:13:23.962Z,100128.13
2023-02-11T12:16:02.494Z,100132.44
2023-02-11T12:18:47.541Z,100128.91
2023-02-11T12:21:54.365Z,100134.97
2023-02-11T12:24:47.407Z,100128.06
2023-02-11T12:27:54.005Z,100140.13
2023-02-11T12:30:53.862Z,100143.63
2023-02-11T12:33:49.283Z,100153.09
2023-02-11T12:36:45.432Z,100150.53
2023-02-11T12:39:35.012Z,100158.34
2023-02-11T12:43:02.687Z,100173.00
2023-02-11T12:45:46.678Z,100172.19
2023-02-11T12:48:53.344Z,100180.81
2023-02-11T12:51:52.700Z,100177.38
2023-02-11T12:54:40.590Z,100179.06
2023-02-11T12:57:33.449Z,100179.06
2023-02-11T13:00:07.965Z,100195.47
2023-02-11T13:02:44.808Z,100210.13
2023-02-11T13:05:23.750Z,100212.72
2023-02-11T13:07:53.226Z,100200.63
2023-02-11T13:10:28.087Z,100215.34
2023-02-11T13:13:16.197Z,100219.66
2023-02-11T13:15:48.789Z,100211.91
2023-02-11T13:18:52.105Z,100228.34
2023-02-11T13:21:29.308Z,100223.16
2023-02-11T13:24:24.056Z,100229.22
2023-02-11T13:27:10.896Z,100235.28
2023-02-11T13:30:04.303Z,100235.28
2023-02-11T13:33:03.451Z,100227.53
2023-02-11T13:35:38.454Z,100238.75
2023-02-11T13:38:18.110Z,100237.88
2023-02-11T13:40:45.653Z,100240.47
2023-02-11T13:43:22.382Z,100242.16
2023-02-11T13:45:50.795Z,100243.03
2023-02-11T13:48:27.003Z,100254.28
2023-02-11T13:50:56.683Z,100256.88
2023-02-11T13:53:23.977Z,100255.13
2023-02-11T13:55:52.797Z,100250.78
2023-02-11T13:58:37.209Z,100262.03
2023-02-11T14:01:04.169Z,100275.00
2023-02-11T14:03:54.235Z,100281.91
2023-02-11T14:06:43.902Z,100284.50
2023-02-11T14:09:35.184Z,100286.19
2023-02-11T14:12:26.531Z,100300.06
2023-02-11T14:15:17.952Z,100304.31
2023-02-11T14:17:44.942Z,100307.78
2023-02-11T14:20:36.638Z,100313.00
2023-02-11T14:23:04.902Z,100313.84
2023-02-11T14:25:32.230Z,100318.16
2023-02-11T14:28:12.068Z,100326.78
2023-02-11T14:31:02.955Z,100339.72
2023-02-11T14:34:07.950Z,100355.28
2023-02-11T14:36:46.376Z,100349.19
2023-02-11T14:39:45.273Z,100361.31
2023-02-11T14:42:19.996Z,100369.94
2023-02-11T14:44:49.353Z,100365.63
2023-02-11T14:47:20.061Z,100369.91
2023-02-11T14:49:47.984Z,100384.59
2023-02-11T14:52:27.089Z,100391.50
2023-02-11T14:55:19.647Z,100393.19
2023-02-11T14:58:11.728Z,100399.25
2023-02-11T15:01:09.172Z,100400.09
2023-02-11T15:03:41.016Z,100411.28
2023-02-11T15:06:20.625Z,100436.31
2023-02-11T15:08:58.335Z,100443.28
2023-02-11T15:11:26.040Z,100442.38
2023-02-11T15:13:55.466Z,100454.41
2023-02-11T15:16:24.636Z,100466.50
2023-02-11T15:18:58.574Z,100459.59
2023-02-11T15:21:30.929Z,100462.19
2023-02-11T15:24:19.245Z,100457.78
2023-02-11T15:26:55.785Z,100480.16
2023-02-11T15:29:27.356Z,100476.78
2023-02-11T15:32:16.096Z,100490.53
2023-02-11T15:34:44.659Z,100479.22
2023-02-11T15:37:30.241Z,100507.69
2023-02-11T15:40:11.534Z,100510.22
2023-02-11T15:42:52.209Z,100514.53
2023-02-11T15:45:28.865Z,100509.22
2023-02-11T15:47:59.730Z,100535.09
2023-02-11T15:50:30.341Z,100533.28
2023-02-11T15:53:01.150Z,100539.25
2023-02-11T15:55:28.902Z,100548.59
2023-02-11T15:57:58.206Z,100552.69
2023-02-11T16:00:34.195Z,100566.41
2023-02-11T16:03:01.302Z,100578.41
2023-02-11T16:05:32.203Z,100583.38
2023-02-11T16:07:59.926Z,100580.72
2023-02-11T16:10:36.030Z,100601.38
2023-02-11T16:13:19.876Z,100608.97
2023-02-11T16:15:52.954Z,100619.28
2023-02-11T16:18:40.407Z,100630.41
2023-02-11T16:21:15.093Z,100637.28
2023-02-11T16:23:42.485Z,100641.56
2023-02-11T16:26:29.083Z,100656.06
2023-02-11T16:29:16.812Z,100675.09
2023-02-11T16:31:47.860Z,100678.47
2023-02-11T16:34:21.023Z,100678.38
2023-02-11T16:36:48.907Z,100694.78
2023-02-11T16:39:17.931Z,100700.72
2023-02-11T16:41:46.388Z,100710.09
2023-02-11T16:44:14.560Z,100702.34
2023-02-11T16:46:41.942Z,100715.22
2023-02-11T16:49:28.493Z,100720.31
2023-02-11T16:52:01.248Z,100727.13
2023-02-11T16:54:31.707Z,100742.59
2023-02-11T16:57:00.768Z,100744.47
2023-02-11T16:59:31.951Z,100747.88
2023-02-11T17:02:06.926Z,100765.75
2023-02-11T17:04:37.896Z,100777.66
2023-02-11T17:07:08.355Z,100777.44
2023-02-11T17:09:37.446Z,100783.94
2023-02-11T17:12:07.906Z,100795.63
2023-02-11T17:14:36.534Z,100806.69
2023-02-11T17:17:06.482Z,100816.81
2023-02-11T17:19:34.954Z,100805.47
2023-02-11T17:22:04.501Z,100813.06
2023-02-11T17:24:38.866Z,100827.75
2023-02-11T17:27:06.173Z,100837.00
2023-02-11T17:29:33.680Z,100834.16
2023-02-11T17:32:01.362Z,100842.88
2023-02-11T17:34:29.834Z,100844.50
2023-02-11T17:36:58.044Z,100856.50
2023-02-11T17:39:25.918Z,100871.00
2023-02-11T17:41:55.455Z,100890.53
2023-02-11T17:44:22.543Z,100912.97
2023-02-11T17:46:49.349Z,100901.78
2023-02-11T17:49:16.578Z,100896.56
2023-02-11T17:51:43.417Z,100916.84
2023-02-11T17:54:15.901Z,100901.69
2023-02-11T17:56:43.308Z,100918.00
2023-02-11T17:59:11.982Z,100924.56
2023-02-11T18:01:40.219Z,100934.66
2023-02-11T18:04:08.732Z,100935.78
2023-02-11T18:06:36.697Z,100947.41
2023-02-11T18:09:04.569Z,100942.13
2023-02-11T18:11:32.972Z,100953.91
2023-02-11T18:14:01.261Z,100967.66
2023-02-11T18:16:29.536Z,100980.72
2023-02-11T18:18:57.833Z,100978.00
2023-02-11T18:21:25.142Z,100982.34
2023-02-11T18:23:56.038Z,100974.72
2023-02-11T18:26:27.698Z,100973.88
2023-02-11T18:28:57.901Z,100998.69
2023-02-11T18:31:26.729Z,101003.72
2023-02-11T18:33:54.698Z,101013.03
2023-02-11T18:36:23.401Z,101023.31
2023-02-11T18:38:52.708Z,101028.44
2023-02-11T18:41:23.891Z,101031.91
2023-02-11T18:43:51.407Z,101037.50
2023-02-11T18:46:21.465Z,101036.75
2023-02-11T18:48:50.092Z,101037.56
2023-02-11T18:51:21.110Z,101041.91
2023-02-11T18:53:48.093Z,101054.78
2023-02-11T18:56:17.815Z,101057.03
2023-02-11T18:58:44.683Z,101072.72
2023-02-11T19:01:24.541Z,101082.16
2023-02-11T19:03:51.818Z,101088.38
2023-02-11T19:06:27.234Z,101086.53
2023-02-11T19:09:00.109Z,101085.53
2023-02-11T19:11:48.638Z,101086.78
2023-02-11T19:14:24.420Z,101117.00
2023-02-11T19:16:53.678Z,101112.66
2023-02-11T19:19:23.417Z,101125.50
2023-02-11T19:21:50.963Z,101121.19
2023-02-11T19:24:21.724Z,101139.19
2023-02-11T19:26:50.093Z,101153.06
2023-02-11T19:29:17.751Z,101157.13
2023-02-11T19:31:46.624Z,101165.75
2023-02-11T19:34:15.529Z,101169.19
2023-02-11T19:36:43.475Z,101166.63
2023-02-11T19:39:10.562Z,101162.19
2023-02-11T19:41:38.174Z,101167.84
2023-02-11T19:44:08.646Z,101173.72
2023-02-11T19:46:42.032Z,101183.16
2023-02-11T19:49:11.820Z,101174.06
2023-02-11T19:51:39.624Z,101182.41
2023-02-11T19:54:08.949Z,101197.59
2023-02-11T19:56:37.922Z,101200.91
2023-02-11T19:59:09.019Z,101213.06
2023-02-11T20:01:37.272Z,101223.63
2023-02-11T20:04:04.540Z,101219.97
2023-02-11T20:06:32.706Z,101222.09
2023-02-11T20:09:01.927Z,101226.19
2023-02-11T20:11:31.535Z,101238.84
2023-02-11T20:13:59.062Z,101248.50
2023-02-11T20:16:44.624Z,101253.78
2023-02-11T20:19:18.360Z,101251.06
2023-02-11T20:21:47.590Z,101264.00
2023-02-11T20:24:16.335Z,101259.09
2023-02-11T20:26:43.394Z,101260.06
2023-02-11T20:29:10.290Z,101270.72
2023-02-11T20:31:38.086Z,101273.53
2023-02-11T20:34:05.114Z,101285.63
2023-02-11T20:36:35.792Z,101289.84
2023-02-11T20:39:05.603Z,101294.03
2023-02-11T20:41:35.434Z,101302.75
2023-02-11T20:44:05.532Z,101301.28
2023-02-11T20:46:35.279Z,101316.84
2023-02-11T20:49:03.126Z,101317.84
2023-02-11T20:51:38.308Z,101327.44
2023-02-11T20:54:07.211Z,101328.38
2023-02-11T20:56:36.244Z,101335.22
2023-02-11T20:59:05.145Z,101340.47
2023-02-11T21:01:35.912Z,101347.97
2023-02-11T21:04:07.134Z,101351.47
2023-02-11T21:06:39.388Z,101348.84
2023-02-11T21:09:09.344Z,101362.41
2023-02-11T21:11:36.393Z,101357.41
2023-02-11T21:14:03.768Z,101365.38
2023-02-11T21:16:31.912Z,101365.47
2023-02-11T21:18:58.799Z,101381.56
2023-02-11T21:21:26.280Z,101383.19
2023-02-11T21:23:53.198Z,101381.13
2023-02-11T21:26:20.030Z,101376.75
2023-02-11T21:28:48.779Z,101379.31
2023-02-11T21:31:27.326Z,101377.09
2023-02-11T21:33:59.420Z,101381.78
2023-02-11T21:36:28.615Z,101393.88
2023-02-11T21:38:55.761Z,101396.19
2023-02-11T21:41:22.811Z,101401.31
2023-02-11T21:43:50.615Z,101400.22
2023-02-11T21:46:18.161Z,101406.78
2023-02-11T21:48:45.178Z,101406.84
2023-02-11T21:51:17.655Z,101411.31
2023-02-11T21:53:44.777Z,101408.03
2023-02-11T21:56:14.678Z,101407.06
2023-02-11T21:58:41.947Z,101413.88
2023-02-11T22:01:17.512Z,101415.16
2023-02-11T22:03:45.197Z,101429.25
2023-02-11T22:06:14.918Z,101420.81
2023-02-11T22:08:41.844Z,101421.53
2023-02-11T22:11:12.352Z,101434.19
2023-02-11T22:13:39.824Z,101438.53
2023-02-11T22:16:09.500Z,101438.44
2023-02-11T22:18:37.271Z,101436.59
2023-02-11T22:21:09.930Z,101435.56
2023-02-11T22:23:37.551Z,101446.22
2023-02-11T22:26:06.610Z,101447.69
2023-02-11T22:28:34.066Z,101450.34
2023-02-11T22:31:01.147Z,101454.66
2023-02-11T22:33:28.424Z,101461.66
2023-02-11T22:35:59.795Z,101472.63
2023-02-11T22:38:28.526Z,101465.75
2023-02-11T22:40:55.756Z,101471.00
2023-02-11T22:43:22.766Z,101469.41
2023-02-11T22:45:50.188Z,101474.69
2023-02-11T22:48:17.508Z,101479.25
2023-02-11T22:50:44.648Z,101485.28
2023-02-11T22:53:11.553Z,101495.47
2023-02-11T22:55:39.520Z,101493.66
2023-02-11T22:58:06.724Z,101489.38
2023-02-11T23:00:38.063Z,101483.44
2023-02-11T23:03:05.969Z,101495.63
2023-02-11T23:05:40.818Z,101499.16
2023-02-11T23:08:08.919Z,101496.56
2023-02-11T23:10:37.421Z,101505.03
2023-02-11T23:13:05.427Z,101513.38
2023-02-11T23:15:32.660Z,101512.44
2023-02-11T23:17:59.772Z,101512.28
2023-02-11T23:20:26.611Z,101510.34
2023-02-11T23:22:53.514Z,101518.88
2023-02-11T23:25:20.322Z,101524.75
2023-02-11T23:27:47.180Z,101518.00
2023-02-11T23:30:14.470Z,101531.66
2023-02-11T23:32:41.370Z,101530.09
2023-02-11T23:35:08.379Z,101542.28
2023-02-11T23:37:35.251Z,101539.94
2023-02-11T23:40:02.111Z,101539.31
2023-02-11T23:42:29.255Z,101544.56
2023-02-11T23:44:56.127Z,101559.22
2023-02-11T23:47:22.966Z,101571.91
2023-02-11T23:49:49.797Z,101568.59
2023-02-11T23:52:16.665Z,101578.97
2023-02-11T23:54:44.973Z,101583.88
2023-02-11T23:57:11.765Z,101581.44
2023-02-11T23:59:38.695Z,101588.34
